createdAt,value
2023-02-20T00:02:13.707Z,23.09
2023-02-20T00:04:40.000Z,23.08
2023-02-20T00:07:06.390Z,23.07
2023-02-20T00:09:32.735Z,23.08
2023-02-20T00:11:59.088Z,23.07
2023-02-20T00:14:25.478Z,23.05
2023-02-20T00:16:51.831Z,23.05
2023-02-20T00:19:18.225Z,23.06
2023-02-20T00:21:44.591Z,23.05
2023-02-20T00:24:10.969Z,23.04
2023-02-20T00:26:37.309Z,23.03
2023-02-20T00:29:03.737Z,23.01
2023-02-20T00:31:30.080Z,23.01
2023-02-20T00:33:56.440Z,23.04
2023-02-20T00:36:22.817Z,23.01
2023-02-20T00:38:49.203Z,23.01
2023-02-20T00:41:15.642Z,22.99
2023-02-20T00:43:41.940Z,22.99
2023-02-20T00:46:08.393Z,22.98
2023-02-20T00:48:34.754Z,22.99
2023-02-20T00:51:01.107Z,22.97
2023-02-20T00:53:27.494Z,22.97
2023-02-20T00:55:53.842Z,22.96
2023-02-20T00:58:20.232Z,22.97
2023-02-20T01:00:46.612Z,22.96
2023-02-20T01:03:12.994Z,22.94
2023-02-20T01:05:39.342Z,22.94
2023-02-20T01:08:05.734Z,22.94
2023-02-20T01:10:32.084Z,22.93
2023-02-20T01:12:58.498Z,22.94
2023-02-20T01:15:24.884Z,22.94
2023-02-20T01:17:51.296Z,22.93
2023-02-20T01:20:17.644Z,22.93
2023-02-20T01:22:44.034Z,22.63
2023-02-20T01:25:10.447Z,22.91
2023-02-20T01:27:36.825Z,22.90
2023-02-20T01:30:03.167Z,22.91
2023-02-20T01:32:29.567Z,22.92
2023-02-20T01:34:55.916Z,22.89
2023-02-20T01:37:22.306Z,22.90
2023-02-20T01:39:48.681Z,22.90
2023-02-20T01:42:15.072Z,22.87
2023-02-20T01:44:41.429Z,22.85
2023-02-20T01:47:07.825Z,22.86
2023-02-20T01:49:34.204Z,22.86
2023-02-20T01:52:00.586Z,22.86
2023-02-20T01:54:26.936Z,22.87
2023-02-20T01:56:53.326Z,22.85
2023-02-20T01:59:19.665Z,22.85
2023-02-20T02:01:46.117Z,22.84
2023-02-20T02:04:12.475Z,22.84
2023-02-20T02:06:38.854Z,22.85
2023-02-20T02:09:05.196Z,22.85
2023-02-20T02:11:31.590Z,22.83
2023-02-20T02:13:57.943Z,22.81
2023-02-20T02:16:24.429Z,22.81
2023-02-20T02:18:50.698Z,22.79
2023-02-20T02:21:17.086Z,22.80
2023-02-20T02:23:43.432Z,22.80
2023-02-20T02:26:09.954Z,22.79
2023-02-20T02:28:36.167Z,22.79
2023-02-20T02:31:02.590Z,22.78
2023-02-20T02:33:28.895Z,22.78
2023-02-20T02:35:55.312Z,22.78
2023-02-20T02:38:21.651Z,22.76
2023-02-20T02:40:50.004Z,22.76
2023-02-20T02:43:14.414Z,22.77
2023-02-20T02:45:40.830Z,22.77
2023-02-20T02:48:07.163Z,22.76
2023-02-20T02:50:33.556Z,22.75
2023-02-20T02:52:59.933Z,22.74
2023-02-20T02:55:26.298Z,22.76
2023-02-20T02:57:52.634Z,22.75
2023-02-20T03:00:19.023Z,22.74
2023-02-20T03:02:45.377Z,22.74
2023-02-20T03:05:11.785Z,22.74
2023-02-20T03:07:38.108Z,22.73
2023-02-20T03:10:04.518Z,22.72
2023-02-20T03:12:30.874Z,22.70
2023-02-20T03:14:57.279Z,22.68
2023-02-20T03:17:23.630Z,22.67
2023-02-20T03:19:50.008Z,22.66
2023-02-20T03:22:16.400Z,22.65
2023-02-20T03:24:42.800Z,22.66
2023-02-20T03:27:09.171Z,22.66
2023-02-20T03:29:35.570Z,22.65
2023-02-20T03:32:02.007Z,22.66
2023-02-20T03:34:28.298Z,22.66
2023-02-20T03:36:54.660Z,22.67
2023-02-20T03:39:21.055Z,22.67
2023-02-20T03:41:47.394Z,22.65
2023-02-20T03:44:13.786Z,22.65
2023-02-20T03:46:40.132Z,22.63
2023-02-20T03:49:06.514Z,22.63
2023-02-20T03:51:32.859Z,22.64
2023-02-20T03:53:59.285Z,22.63
2023-02-20T03:56:25.634Z,22.62
2023-02-20T03:58:52.014Z,22.63
2023-02-20T04:01:18.417Z,22.61
2023-02-20T04:03:44.756Z,22.63
2023-02-20T04:06:11.416Z,22.63
2023-02-20T04:08:37.512Z,22.61
2023-02-20T04:11:03.890Z,22.61
2023-02-20T04:13:30.274Z,22.58
2023-02-20T04:15:56.612Z,22.60
2023-02-20T04:18:23.003Z,22.60
2023-02-20T04:20:49.354Z,22.59
2023-02-20T04:23:15.744Z,22.58
2023-02-20T04:25:42.074Z,22.58
2023-02-20T04:28:08.459Z,22.59
2023-02-20T04:30:34.860Z,22.61
2023-02-20T04:33:01.198Z,22.60
2023-02-20T04:35:27.550Z,22.60
2023-02-20T04:37:53.979Z,22.61
2023-02-20T04:40:20.330Z,22.61
2023-02-20T04:42:46.755Z,22.61
2023-02-20T04:45:13.087Z,22.64
2023-02-20T04:47:39.475Z,22.63
2023-02-20T04:50:05.838Z,22.64
2023-02-20T04:52:32.239Z,22.64
2023-02-20T04:54:58.578Z,22.64
2023-02-20T04:57:24.961Z,22.64
2023-02-20T04:59:51.320Z,22.64
2023-02-20T05:02:17.709Z,22.65
2023-02-20T05:04:44.162Z,22.65
2023-02-20T05:07:10.469Z,22.66
2023-02-20T05:09:36.803Z,22.65
2023-02-20T05:12:03.225Z,22.67
2023-02-20T05:14:29.586Z,22.67
2023-02-20T05:16:55.959Z,22.69
2023-02-20T05:19:22.314Z,22.69
2023-02-20T05:21:48.710Z,22.69
2023-02-20T05:24:15.063Z,22.71
2023-02-20T05:26:41.449Z,22.65
2023-02-20T05:29:07.803Z,22.71
2023-02-20T05:31:34.254Z,22.69
2023-02-20T05:34:00.547Z,22.70
2023-02-20T05:36:26.932Z,22.71
2023-02-20T05:38:53.316Z,22.71
2023-02-20T05:41:19.706Z,22.72
2023-02-20T05:43:46.057Z,22.73
2023-02-20T05:46:12.791Z,22.74
2023-02-20T05:48:38.828Z,22.74
2023-02-20T05:51:05.217Z,22.74
2023-02-20T05:53:31.562Z,22.77
2023-02-20T05:55:57.962Z,22.75
2023-02-20T05:58:24.302Z,22.75
2023-02-20T06:00:50.822Z,22.75
2023-02-20T06:03:17.177Z,22.77
2023-02-20T06:05:43.603Z,22.76
2023-02-20T06:08:09.922Z,22.78
2023-02-20T06:10:36.316Z,22.77
2023-02-20T06:13:02.690Z,22.80
2023-02-20T06:15:30.398Z,22.79
2023-02-20T06:17:55.404Z,22.80
2023-02-20T06:20:21.838Z,22.81
2023-02-20T06:22:48.164Z,22.82
2023-02-20T06:25:14.552Z,22.81
2023-02-20T06:27:40.896Z,22.82
2023-02-20T06:30:07.324Z,22.85
2023-02-20T06:32:33.672Z,22.87
2023-02-20T06:35:00.095Z,22.89
2023-02-20T06:37:26.440Z,22.90
2023-02-20T06:39:52.836Z,22.89
2023-02-20T06:42:19.177Z,22.87
2023-02-20T06:44:45.567Z,22.89
2023-02-20T06:47:13.151Z,22.94
2023-02-20T06:49:38.334Z,22.97
2023-02-20T06:52:04.665Z,22.98
2023-02-20T06:54:31.054Z,22.92
2023-02-20T06:56:57.488Z,22.97
2023-02-20T06:59:23.888Z,22.98
2023-02-20T07:01:50.251Z,22.97
2023-02-20T07:04:16.622Z,22.97
2023-02-20T07:06:42.967Z,23.01
2023-02-20T07:09:09.357Z,22.99
2023-02-20T07:11:35.700Z,23.00
2023-02-20T07:14:02.103Z,23.00
2023-02-20T07:16:28.449Z,23.03
2023-02-20T07:18:54.836Z,23.04
2023-02-20T07:21:21.183Z,23.04
2023-02-20T07:23:47.576Z,23.04
2023-02-20T07:26:14.191Z,23.06
2023-02-20T07:28:40.345Z,23.11
2023-02-20T07:31:06.701Z,23.12
2023-02-20T07:33:33.111Z,23.11
2023-02-20T07:35:59.483Z,23.12
2023-02-20T07:38:25.899Z,23.15
2023-02-20T07:40:52.259Z,23.16
2023-02-20T07:43:18.693Z,23.19
2023-02-20T07:45:45.067Z,23.17
2023-02-20T07:48:11.444Z,23.17
2023-02-20T07:50:37.785Z,23.22
2023-02-20T07:53:04.189Z,23.23
2023-02-20T07:55:31.230Z,23.26
2023-02-20T07:57:57.610Z,23.27
2023-02-20T08:00:24.012Z,23.29
2023-02-20T08:02:50.351Z,23.30
2023-02-20T08:05:16.756Z,23.27
2023-02-20T08:07:43.092Z,23.31
2023-02-20T08:10:09.457Z,23.31
2023-02-20T08:12:35.847Z,23.35
2023-02-20T08:15:02.200Z,23.35
2023-02-20T08:17:44.215Z,23.41
2023-02-20T08:19:55.188Z,23.40
2023-02-20T08:22:27.913Z,23.40
2023-02-20T08:24:47.995Z,23.41
2023-02-20T08:27:14.386Z,23.43
2023-02-20T08:29:40.747Z,23.44
2023-02-20T08:32:07.209Z,23.46
2023-02-20T08:34:33.501Z,23.48
2023-02-20T08:36:59.912Z,23.47
2023-02-20T08:39:26.262Z,23.50
2023-02-20T08:41:52.719Z,23.39
2023-02-20T08:44:19.050Z,23.51
2023-02-20T08:46:45.435Z,23.57
2023-02-20T08:49:11.801Z,23.55
2023-02-20T08:51:38.203Z,23.40
2023-02-20T08:54:04.555Z,23.57
2023-02-20T08:56:30.941Z,23.57
2023-02-20T08:58:57.317Z,23.58
2023-02-20T09:01:23.697Z,23.58
2023-02-20T09:03:50.030Z,23.61
2023-02-20T09:06:16.460Z,23.62
2023-02-20T09:08:42.831Z,23.63
2023-02-20T09:11:10.164Z,23.64
2023-02-20T09:13:35.552Z,23.63
2023-02-20T09:16:01.933Z,23.64
2023-02-20T09:18:28.346Z,23.63
2023-02-20T09:20:54.751Z,23.66
2023-02-20T09:23:21.132Z,23.66
2023-02-20T09:25:47.586Z,23.66
2023-02-20T09:28:13.898Z,23.66
2023-02-20T09:30:40.417Z,23.67
2023-02-20T09:33:06.686Z,23.68
2023-02-20T09:35:33.065Z,23.70
2023-02-20T09:37:59.485Z,23.71
2023-02-20T09:40:25.903Z,23.71
2023-02-20T09:42:52.228Z,23.73
2023-02-20T09:45:18.640Z,23.73
2023-02-20T09:47:44.984Z,23.74
2023-02-20T09:50:11.378Z,23.74
2023-02-20T09:52:37.734Z,23.75
2023-02-20T09:55:04.178Z,23.78
2023-02-20T09:57:30.547Z,23.78
2023-02-20T09:59:56.932Z,23.81
2023-02-20T10:02:23.428Z,23.82
2023-02-20T10:05:00.243Z,23.84
2023-02-20T10:07:16.014Z,23.85
2023-02-20T10:09:42.406Z,23.84
2023-02-20T10:12:08.764Z,23.86
2023-02-20T10:14:35.188Z,23.86
2023-02-20T10:17:01.531Z,23.86
2023-02-20T10:19:27.955Z,23.86
2023-02-20T10:21:54.305Z,23.85
2023-02-20T10:24:20.700Z,23.85
2023-02-20T10:26:47.044Z,23.88
2023-02-20T10:29:13.496Z,23.91
2023-02-20T10:31:39.891Z,23.92
2023-02-20T10:34:06.243Z,23.91
2023-02-20T10:36:32.629Z,23.94
2023-02-20T10:38:59.008Z,23.96
2023-02-20T10:41:25.379Z,23.96
2023-02-20T10:43:51.784Z,23.99
2023-02-20T10:46:18.563Z,24.01
2023-02-20T10:48:44.512Z,24.00
2023-02-20T10:51:10.902Z,24.02
2023-02-20T10:53:37.254Z,24.06
2023-02-20T10:56:03.628Z,23.90
2023-02-20T10:58:29.978Z,24.07
2023-02-20T11:00:56.394Z,24.10
2023-02-20T11:03:22.799Z,24.07
2023-02-20T11:05:49.165Z,24.07
2023-02-20T11:08:15.625Z,24.10
2023-02-20T11:10:41.970Z,24.10
2023-02-20T11:13:08.307Z,24.08
2023-02-20T11:15:34.742Z,24.15
2023-02-20T11:18:01.139Z,24.15
2023-02-20T11:20:27.503Z,24.13
2023-02-20T11:22:53.839Z,23.99
2023-02-20T11:25:20.297Z,24.16
2023-02-20T11:27:46.620Z,24.16
2023-02-20T11:30:13.045Z,24.19
2023-02-20T11:32:39.410Z,24.17
2023-02-20T11:35:05.753Z,24.22
2023-02-20T11:37:34.572Z,24.21
2023-02-20T11:39:58.509Z,24.23
2023-02-20T11:42:24.901Z,24.23
2023-02-20T11:44:51.245Z,24.28
2023-02-20T11:47:17.584Z,24.28
2023-02-20T11:49:43.986Z,24.30
2023-02-20T11:52:10.328Z,24.29
2023-02-20T11:54:36.732Z,24.30
2023-02-20T11:57:03.098Z,24.35
2023-02-20T11:59:29.478Z,24.33
2023-02-20T12:02:01.147Z,24.37
2023-02-20T12:04:22.267Z,24.39
2023-02-20T12:06:48.550Z,24.39
2023-02-20T12:09:14.945Z,24.40
2023-02-20T12:11:41.296Z,24.41
2023-02-20T12:14:07.688Z,24.41
2023-02-20T12:16:34.083Z,24.44
2023-02-20T12:19:00.489Z,24.48
2023-02-20T12:21:26.820Z,24.51
2023-02-20T12:23:53.200Z,24.54
2023-02-20T12:26:19.557Z,24.54
2023-02-20T12:28:45.931Z,24.52
2023-02-20T12:31:15.435Z,24.55
2023-02-20T12:33:41.749Z,24.50
2023-02-20T12:36:08.091Z,24.50
2023-02-20T12:38:34.484Z,24.46
2023-02-20T12:41:00.817Z,24.46
2023-02-20T12:43:27.201Z,24.64
2023-02-20T12:45:53.547Z,24.64
2023-02-20T12:48:19.970Z,24.64
2023-02-20T12:50:46.310Z,24.63
2023-02-20T12:53:12.768Z,24.68
2023-02-20T12:55:39.138Z,24.65
2023-02-20T12:58:05.576Z,24.66
2023-02-20T13:00:31.945Z,24.71
2023-02-20T13:02:58.329Z,24.70
2023-02-20T13:05:24.675Z,24.73
2023-02-20T13:07:51.078Z,24.73
2023-02-20T13:10:17.423Z,24.67
2023-02-20T13:12:43.818Z,24.67
2023-02-20T13:15:10.166Z,24.73
2023-02-20T13:17:36.541Z,24.73
2023-02-20T13:20:02.890Z,24.73
2023-02-20T13:22:29.306Z,24.76
2023-02-20T13:24:55.654Z,24.78
2023-02-20T13:27:22.050Z,24.77
2023-02-20T13:29:48.434Z,24.80
2023-02-20T13:32:14.843Z,24.82
2023-02-20T13:34:41.188Z,24.80
2023-02-20T13:37:07.590Z,24.79
2023-02-20T13:39:33.953Z,24.81
2023-02-20T13:42:00.347Z,24.83
2023-02-20T13:44:26.725Z,24.85
2023-02-20T13:46:53.137Z,24.83
2023-02-20T13:49:19.513Z,24.82
2023-02-20T13:51:45.908Z,24.82
2023-02-20T13:54:12.266Z,24.78
2023-02-20T13:56:38.652Z,24.82
2023-02-20T13:59:05.036Z,24.77
2023-02-20T14:01:31.485Z,24.80
2023-02-20T14:03:57.799Z,24.74
2023-02-20T14:06:24.256Z,24.70
2023-02-20T14:08:50.567Z,24.68
2023-02-20T14:11:16.959Z,24.66
2023-02-20T14:13:43.318Z,24.65
2023-02-20T14:16:09.789Z,24.61
2023-02-20T14:18:36.060Z,24.61
2023-02-20T14:21:02.460Z,24.65
2023-02-20T14:23:28.814Z,24.64
2023-02-20T14:26:00.282Z,24.63
2023-02-20T14:28:21.600Z,24.62
2023-02-20T14:30:47.972Z,24.45
2023-02-20T14:33:14.360Z,24.62
2023-02-20T14:35:40.823Z,24.60
2023-02-20T14:38:07.153Z,24.60
2023-02-20T14:40:33.583Z,24.61
2023-02-20T14:42:59.940Z,24.59
2023-02-20T14:45:26.350Z,24.59
2023-02-20T14:47:52.688Z,24.61
2023-02-20T14:50:19.096Z,24.61
2023-02-20T14:52:45.437Z,24.59
2023-02-20T14:55:11.857Z,24.62
2023-02-20T14:57:38.207Z,24.62
2023-02-20T15:00:04.667Z,24.64
2023-02-20T15:02:34.476Z,24.61
2023-02-20T15:04:57.462Z,24.60
2023-02-20T15:07:23.793Z,24.63
2023-02-20T15:09:50.199Z,24.61
2023-02-20T15:12:16.547Z,24.60
2023-02-20T15:14:42.965Z,24.61
2023-02-20T15:17:09.357Z,24.60
2023-02-20T15:19:35.735Z,24.57
2023-02-20T15:22:02.078Z,24.55
2023-02-20T15:24:28.490Z,24.55
2023-02-20T15:26:54.833Z,24.55
2023-02-20T15:29:21.260Z,24.44
2023-02-20T15:31:47.685Z,24.58
2023-02-20T15:34:14.020Z,24.60
2023-02-20T15:36:40.373Z,24.61
2023-02-20T15:39:06.798Z,24.62
2023-02-20T15:41:33.170Z,24.65
2023-02-20T15:43:59.555Z,24.68
2023-02-20T15:46:25.939Z,24.68
2023-02-20T15:48:52.295Z,24.68
2023-02-20T15:51:18.651Z,24.65
2023-02-20T15:56:20.338Z,24.67
2023-02-20T15:58:46.684Z,24.66
2023-02-20T16:01:13.102Z,24.69
2023-02-20T16:03:51.112Z,24.65
2023-02-20T16:06:05.980Z,24.65
2023-02-20T16:08:32.288Z,24.64
2023-02-20T16:10:58.704Z,24.65
2023-02-20T16:13:25.047Z,24.64
2023-02-20T16:15:51.494Z,24.61
2023-02-20T16:18:17.814Z,24.62
2023-02-20T16:20:44.276Z,24.63
2023-02-20T16:23:10.561Z,24.62
2023-02-20T16:25:36.950Z,24.60
2023-02-20T16:28:03.291Z,24.54
2023-02-20T16:30:33.668Z,24.62
2023-02-20T16:32:56.077Z,24.62
2023-02-20T16:35:22.480Z,24.61
2023-02-20T16:37:48.834Z,24.61
2023-02-20T16:40:15.254Z,24.61
2023-02-20T16:42:41.607Z,24.59
2023-02-20T16:45:08.008Z,24.56
2023-02-20T16:47:34.371Z,24.56
2023-02-20T16:50:00.759Z,24.54
2023-02-20T16:52:27.142Z,24.55
2023-02-20T16:54:53.488Z,24.51
2023-02-20T16:57:19.830Z,24.51
2023-02-20T16:59:46.245Z,24.52
2023-02-20T17:02:12.592Z,24.52
2023-02-20T17:04:39.009Z,24.48
2023-02-20T17:07:07.545Z,24.35
2023-02-20T17:09:42.574Z,24.46
2023-02-20T17:11:58.117Z,24.45
2023-02-20T17:14:24.503Z,24.43
2023-02-20T17:16:50.918Z,24.42
2023-02-20T17:19:17.232Z,24.42
2023-02-20T17:21:43.599Z,24.42
2023-02-20T17:24:09.982Z,24.40
2023-02-20T17:26:36.362Z,24.39
2023-02-20T17:29:02.889Z,24.39
2023-02-20T17:31:29.440Z,24.40
2023-02-20T17:33:55.624Z,24.38
2023-02-20T17:36:22.014Z,24.35
2023-02-20T17:38:48.395Z,24.34
2023-02-20T17:41:15.089Z,24.34
2023-02-20T17:43:41.181Z,24.34
2023-02-20T17:46:07.533Z,24.26
2023-02-20T17:48:33.925Z,24.26
2023-02-20T17:51:00.264Z,24.31
2023-02-20T17:53:26.705Z,24.30
2023-02-20T17:55:53.044Z,24.25
2023-02-20T17:58:19.449Z,24.31
2023-02-20T18:00:45.834Z,24.30
2023-02-20T18:03:12.168Z,24.29
2023-02-20T18:05:38.521Z,24.29
2023-02-20T18:08:04.918Z,24.27
2023-02-20T18:10:31.270Z,24.26
2023-02-20T18:12:57.687Z,24.25
2023-02-20T18:15:24.035Z,24.23
2023-02-20T18:17:50.422Z,24.20
2023-02-20T18:20:16.753Z,24.13
2023-02-20T18:22:43.157Z,24.13
2023-02-20T18:25:09.532Z,24.18
2023-02-20T18:27:35.920Z,24.19
2023-02-20T18:30:02.346Z,24.17
2023-02-20T18:32:28.758Z,24.16
2023-02-20T18:34:55.001Z,24.15
2023-02-20T18:37:21.397Z,24.14
2023-02-20T18:39:47.741Z,24.11
2023-02-20T18:42:14.137Z,24.12
2023-02-20T18:44:40.493Z,24.12
2023-02-20T18:47:06.870Z,24.10
2023-02-20T18:49:33.225Z,24.10
2023-02-20T18:51:59.612Z,24.08
2023-02-20T18:54:25.949Z,24.11
2023-02-20T18:56:52.389Z,24.08
2023-02-20T18:59:18.683Z,24.06
2023-02-20T19:01:45.081Z,24.05
2023-02-20T19:04:11.419Z,24.05
2023-02-20T19:06:37.846Z,24.05
2023-02-20T19:09:04.177Z,24.05
2023-02-20T19:11:30.555Z,24.02
2023-02-20T19:13:56.897Z,24.03
2023-02-20T19:16:23.327Z,24.02
2023-02-20T19:18:50.986Z,24.02
2023-02-20T19:21:16.042Z,24.01
2023-02-20T19:23:42.394Z,23.98
2023-02-20T19:26:08.773Z,23.98
2023-02-20T19:28:35.120Z,23.96
2023-02-20T19:31:01.513Z,23.96
2023-02-20T19:33:27.861Z,23.95
2023-02-20T19:35:54.279Z,23.95
2023-02-20T19:38:20.619Z,23.94
2023-02-20T19:40:47.019Z,23.94
2023-02-20T19:43:13.344Z,23.94
2023-02-20T19:45:39.771Z,23.94
2023-02-20T19:48:06.077Z,23.94
2023-02-20T19:50:32.497Z,23.91
2023-02-20T19:52:58.844Z,23.86
2023-02-20T19:55:25.231Z,23.86
2023-02-20T19:57:51.593Z,23.84
2023-02-20T20:00:18.132Z,23.85
2023-02-20T20:02:44.403Z,23.81
2023-02-20T20:05:10.786Z,23.81
2023-02-20T20:07:37.128Z,23.80
2023-02-20T20:10:03.554Z,23.80
2023-02-20T20:12:29.931Z,23.78
2023-02-20T20:14:56.280Z,23.78
2023-02-20T20:17:25.067Z,23.75
2023-02-20T20:19:58.781Z,23.75
2023-02-20T20:22:20.201Z,23.75
2023-02-20T20:24:46.596Z,23.74
2023-02-20T20:27:12.966Z,23.73
2023-02-20T20:29:39.356Z,23.72
2023-02-20T20:32:05.740Z,23.71
2023-02-20T20:34:32.093Z,23.70
2023-02-20T20:36:58.439Z,23.71
2023-02-20T20:39:24.836Z,23.68
2023-02-20T20:41:51.173Z,23.67
2023-02-20T20:44:17.572Z,23.66
2023-02-20T20:46:43.930Z,23.65
2023-02-20T20:49:10.308Z,23.64
2023-02-20T20:51:36.655Z,23.63
2023-02-20T20:54:03.619Z,23.63
2023-02-20T20:56:29.396Z,23.61
2023-02-20T20:58:55.790Z,23.60
2023-02-20T21:01:22.163Z,23.59
2023-02-20T21:03:48.480Z,23.59
2023-02-20T21:06:14.871Z,23.56
2023-02-20T21:08:41.242Z,23.56
2023-02-20T21:11:07.692Z,23.53
2023-02-20T21:13:33.993Z,23.54
2023-02-20T21:16:00.530Z,23.54
2023-02-20T21:18:26.755Z,23.51
2023-02-20T21:20:53.191Z,23.51
2023-02-20T21:23:19.519Z,23.48
2023-02-20T21:25:45.943Z,23.46
2023-02-20T21:28:12.283Z,23.45
2023-02-20T21:30:38.713Z,23.46
2023-02-20T21:33:05.033Z,23.43
2023-02-20T21:35:31.421Z,23.43
2023-02-20T21:37:57.761Z,23.43
2023-02-20T21:40:24.154Z,23.43
2023-02-20T21:42:50.496Z,23.41
2023-02-20T21:45:16.882Z,23.41
2023-02-20T21:47:43.234Z,23.40
2023-02-20T21:50:09.627Z,23.38
2023-02-20T21:52:36.011Z,23.39
2023-02-20T21:55:02.390Z,23.36
2023-02-20T21:57:28.771Z,23.37
2023-02-20T21:59:55.171Z,23.35
2023-02-20T22:02:21.512Z,23.35
2023-02-20T22:04:47.902Z,23.35
2023-02-20T22:07:14.254Z,23.34
2023-02-20T22:09:40.651Z,23.32
2023-02-20T22:12:07.008Z,23.32
2023-02-20T22:17:18.621Z,23.31
2023-02-20T22:19:45.024Z,23.32
2023-02-20T22:22:11.370Z,23.30
2023-02-20T22:24:39.085Z,23.27
2023-02-20T22:27:04.105Z,23.28
2023-02-20T22:29:30.698Z,23.26
2023-02-20T22:31:56.936Z,23.26
2023-02-20T22:34:23.267Z,23.25
2023-02-20T22:36:49.605Z,23.26
2023-02-20T22:39:16.134Z,23.23
2023-02-20T22:41:42.504Z,23.22
2023-02-20T22:44:08.912Z,23.21
2023-02-20T22:46:35.284Z,23.21
2023-02-20T22:49:01.719Z,23.20
2023-02-20T22:51:28.064Z,23.21
2023-02-20T22:53:54.458Z,23.21
2023-02-20T22:56:20.820Z,23.19
2023-02-20T22:58:47.212Z,23.18
2023-02-20T23:01:13.975Z,23.18
2023-02-20T23:03:39.955Z,23.16
2023-02-20T23:06:16.948Z,23.15
2023-02-20T23:08:32.696Z,23.15
2023-02-20T23:10:59.048Z,23.14
2023-02-20T23:13:25.446Z,23.14
2023-02-20T23:15:51.791Z,23.14
2023-02-20T23:18:18.572Z,23.13
2023-02-20T23:20:44.922Z,23.11
2023-02-20T23:23:11.325Z,23.13
2023-02-20T23:25:37.664Z,23.10
2023-02-20T23:28:04.098Z,23.10
2023-02-20T23:30:30.524Z,23.10
2023-02-20T23:32:56.818Z,23.09
2023-02-20T23:35:23.154Z,23.07
2023-02-20T23:37:49.998Z,23.08
2023-02-20T23:40:21.207Z,23.07
2023-02-20T23:42:42.754Z,23.05
2023-02-20T23:45:09.089Z,23.03
2023-02-20T23:47:35.468Z,23.04
2023-02-20T23:50:01.807Z,23.04
2023-02-20T23:52:28.218Z,23.03
2023-02-20T23:54:54.555Z,23.02
2023-02-20T23:57:20.958Z,23.00
2023-02-20T23:59:47.311Z,22.98
